Time;durP1;ratioP1;P1;durP2;ratioP2;P2;SDS_P1;SDS_P2;PMS_P1;PMS_P2;Temp;Humidity;BMP_temperature;BMP_pressure;BME280_temperature;BME280_humidity;BME280_pressure;Samples;Min_cycle;Max_cycle;Signal;HPM_P1;HPM_P2
2023/08/17 00:01:23;;;;;;;9.70;4.72;;;;;;;18.27;100.00;101947.16;5027469;28;20161;-72
2023/08/17 00:03:49;;;;;;;9.13;4.60;;;;;;;18.25;100.00;101951.81;5027085;28;20873;-73
2023/08/17 00:06:14;;;;;;;7.53;3.80;;;;;;;18.26;100.00;101957.09;5029786;28;20053;-72
2023/08/17 00:08:42;;;;;;;8.48;3.92;;;;;;;18.30;100.00;101952.31;5030531;28;20116;-72
2023/08/17 00:11:08;;;;;;;10.65;3.92;;;;;;;18.27;100.00;101953.44;5031071;28;20034;-72
2023/08/17 00:13:34;;;;;;;11.10;4.45;;;;;;;18.33;100.00;101946.69;5020422;28;20629;-72
2023/08/17 00:16:00;;;;;;;8.20;4.47;;;;;;;18.43;100.00;101950.41;5026345;28;20034;-72
2023/08/17 00:18:26;;;;;;;9.13;4.15;;;;;;;18.20;100.00;101954.88;5025739;28;20463;-72
2023/08/17 00:20:52;;;;;;;6.07;4.13;;;;;;;18.21;100.00;101953.91;5027391;28;20145;-73
2023/08/17 00:23:17;;;;;;;8.40;4.50;;;;;;;18.31;100.00;101954.91;5026549;28;20069;-72
2023/08/17 00:25:43;;;;;;;10.25;4.50;;;;;;;18.17;100.00;101951.56;5029300;28;20749;-73
2023/08/17 00:28:08;;;;;;;8.85;4.53;;;;;;;18.16;100.00;101944.44;5031892;28;20721;-72
2023/08/17 00:30:36;;;;;;;10.23;4.18;;;;;;;18.05;100.00;101951.53;5024676;28;20108;-73
2023/08/17 00:33:02;;;;;;;13.73;4.68;;;;;;;18.17;100.00;101948.84;5030202;28;20045;-72
2023/08/17 00:35:29;;;;;;;10.50;4.10;;;;;;;18.09;100.00;101944.06;5022024;28;20030;-72
2023/08/17 00:37:56;;;;;;;11.00;4.68;;;;;;;18.01;100.00;101954.59;5059188;28;20562;-72
2023/08/17 00:40:21;;;;;;;7.10;4.72;;;;;;;17.96;100.00;101957.63;5027087;28;20053;-72
2023/08/17 00:42:47;;;;;;;6.22;4.55;;;;;;;17.91;100.00;101965.22;5027217;28;20068;-74
2023/08/17 00:45:12;;;;;;;8.60;4.93;;;;;;;17.98;100.00;101955.69;5026668;28;20087;-72
2023/08/17 00:47:38;;;;;;;9.73;4.90;;;;;;;17.79;100.00;101953.53;5063330;28;20041;-73
2023/08/17 00:50:05;;;;;;;9.35;5.18;;;;;;;17.83;100.00;101952.31;5032727;28;20111;-72
2023/08/17 00:52:32;;;;;;;10.73;4.82;;;;;;;17.85;100.00;101954.91;5033018;28;20037;-72
2023/08/17 00:55:00;;;;;;;14.25;5.30;;;;;;;17.89;100.00;101955.53;5034372;28;20049;-73
2023/08/17 00:57:26;;;;;;;9.15;4.97;;;;;;;17.86;100.00;101959.31;5034145;28;20036;-72
2023/08/17 00:59:52;;;;;;;8.27;4.90;;;;;;;17.94;100.00;101956.03;5031422;28;20079;-73
2023/08/17 01:02:18;;;;;;;12.88;5.25;;;;;;;17.95;100.00;101953.22;5037750;28;20898;-72
2023/08/17 01:04:44;;;;;;;12.20;5.82;;;;;;;17.88;100.00;101956.53;5034038;28;21123;-74
2023/08/17 01:07:09;;;;;;;11.98;4.95;;;;;;;17.80;100.00;101955.25;5031322;28;20034;-72
2023/08/17 01:09:36;;;;;;;9.95;5.30;;;;;;;17.89;100.00;101953.69;5029686;28;20041;-72
2023/08/17 01:12:10;;;;;;;5.95;4.40;;;;;;;17.74;100.00;101954.88;5041573;28;20034;-73
2023/08/17 01:14:59;;;;;;;12.63;5.50;;;;;;;17.66;100.00;101946.44;5038117;28;20115;-73
2023/08/17 01:17:56;;;;;;;10.05;4.55;;;;;;;17.70;100.00;101945.25;5037695;28;20068;-73
2023/08/17 01:20:23;;;;;;;6.53;4.32;;;;;;;17.67;100.00;101943.66;5041509;28;20083;-72
2023/08/17 01:22:51;;;;;;;8.00;5.32;;;;;;;17.66;100.00;101943.75;5055699;28;20041;-73
2023/08/17 01:25:17;;;;;;;8.13;5.00;;;;;;;17.84;100.00;101948.66;5063638;28;20041;-72
2023/08/17 01:27:46;;;;;;;11.73;5.15;;;;;;;17.60;100.00;101956.72;5061670;28;20038;-73
2023/08/17 01:30:15;;;;;;;11.05;5.20;;;;;;;17.74;100.00;101961.13;5059675;28;20068;-73
2023/08/17 01:33:03;;;;;;;12.70;4.95;;;;;;;17.63;100.00;101961.03;5064405;28;20065;-73
2023/08/17 01:35:45;;;;;;;10.95;4.63;;;;;;;17.70;100.00;101962.28;5066715;28;20072;-73
2023/08/17 01:38:16;;;;;;;7.78;5.40;;;;;;;17.75;100.00;101965.53;5041130;28;20041;-73
2023/08/17 01:40:44;;;;;;;;;;;;;;;17.92;100.00;101956.13;5050741;28;20063;-73
2023/08/17 01:43:12;;;;;;;6.60;5.00;;;;;;;17.78;100.00;101959.06;5045113;28;19925;-74
2023/08/17 01:45:38;;;;;;;13.77;5.65;;;;;;;17.76;100.00;101966.38;5060165;28;20176;-73
2023/08/17 01:48:04;;;;;;;10.73;5.85;;;;;;;17.89;100.00;101958.22;5066668;28;21133;-72
2023/08/17 01:50:30;;;;;;;10.50;5.32;;;;;;;17.78;100.00;101949.13;5061332;28;20045;-72
2023/08/17 01:52:55;;;;;;;13.15;5.65;;;;;;;17.46;100.00;101945.25;5069197;28;20060;-73
2023/08/17 01:55:22;;;;;;;9.52;5.15;;;;;;;17.55;100.00;101940.03;5052509;28;20060;-73
2023/08/17 01:57:48;;;;;;;10.00;5.80;;;;;;;17.33;100.00;101938.09;5044207;28;20121;-73
2023/08/17 02:00:14;;;;;;;12.98;5.32;;;;;;;17.43;100.00;101929.31;5044849;28;20072;-73
2023/08/17 02:02:40;;;;;;;16.40;6.15;;;;;;;17.40;100.00;101930.38;5048064;28;20037;-72
2023/08/17 02:05:06;;;;;;;10.20;6.18;;;;;;;17.26;100.00;101923.31;5035993;28;20064;-73
2023/08/17 02:07:31;;;;;;;11.27;5.90;;;;;;;17.32;100.00;101920.19;5028275;28;20104;-73
2023/08/17 02:09:57;;;;;;;10.38;6.13;;;;;;;17.19;100.00;101922.06;5040082;28;20094;-73
2023/08/17 02:12:23;;;;;;;13.35;5.57;;;;;;;17.14;100.00;101929.63;5034855;28;20041;-73
2023/08/17 02:14:48;;;;;;;8.57;6.32;;;;;;;17.09;100.00;101921.88;5035045;28;20052;-73
2023/08/17 02:17:16;;;;;;;15.23;6.45;;;;;;;17.06;100.00;101919.41;5032640;28;20535;-73
2023/08/17 02:19:47;;;;;;;14.13;6.97;;;;;;;17.08;100.00;101919.31;5030882;28;20099;-73
2023/08/17 02:22:13;;;;;;;13.45;5.82;;;;;;;16.97;100.00;101925.50;5029544;28;20190;-73
2023/08/17 02:24:39;;;;;;;10.63;6.05;;;;;;;16.95;100.00;101932.81;5017319;28;20057;-73
2023/08/17 02:27:04;;;;;;;15.60;5.95;;;;;;;17.17;100.00;101928.53;5022370;28;20844;-73
2023/08/17 02:29:30;;;;;;;13.73;6.38;;;;;;;17.13;100.00;101919.84;5042389;28;20037;-73
2023/08/17 02:31:55;;;;;;;10.93;6.20;;;;;;;17.10;100.00;101922.75;5030011;28;20115;-73
2023/08/17 02:34:21;;;;;;;12.70;5.78;;;;;;;16.91;100.00;101925.06;5028768;28;20143;-73
2023/08/17 02:36:46;;;;;;;17.02;6.57;;;;;;;16.96;100.00;101925.59;5026732;28;20061;-73
2023/08/17 02:39:12;;;;;;;12.85;5.50;;;;;;;16.99;100.00;101925.38;5022336;28;20037;-73
2023/08/17 02:41:37;;;;;;;12.68;5.72;;;;;;;17.08;100.00;101930.94;5024563;28;20041;-73
2023/08/17 02:44:03;;;;;;;8.43;5.63;;;;;;;16.87;100.00;101919.06;5027081;28;20040;-72
2023/08/17 02:46:29;;;;;;;13.27;5.75;;;;;;;16.98;100.00;101910.19;5028430;28;20091;-72
2023/08/17 02:48:54;;;;;;;12.00;5.93;;;;;;;16.78;100.00;101912.50;5028334;28;20341;-73
2023/08/17 02:51:20;;;;;;;17.88;6.10;;;;;;;16.85;100.00;101920.97;5028014;28;20041;-72
2023/08/17 02:53:45;;;;;;;15.30;6.10;;;;;;;16.79;100.00;101919.59;5026236;28;20042;-72
2023/08/17 02:56:12;;;;;;;13.27;5.57;;;;;;;16.93;100.00;101912.34;5029664;28;20045;-73
2023/08/17 02:58:41;;;;;;;11.57;5.15;;;;;;;16.76;100.00;101914.41;5028862;28;20041;-72
2023/08/17 03:01:09;;;;;;;11.32;5.57;;;;;;;16.85;100.00;101912.03;5028642;28;20042;-72
2023/08/17 03:03:35;;;;;;;8.88;5.38;;;;;;;16.72;100.00;101912.94;5026203;28;20041;-72
2023/08/17 03:06:02;;;;;;;15.95;6.20;;;;;;;16.76;100.00;101913.56;5022939;28;20033;-72
2023/08/17 03:08:28;;;;;;;12.70;6.18;;;;;;;16.76;100.00;101911.72;5024119;28;21057;-72
2023/08/17 03:10:54;;;;;;;9.50;6.00;;;;;;;16.87;100.00;101902.88;5023397;28;20034;-72
2023/08/17 03:13:20;;;;;;;7.03;5.00;;;;;;;16.82;100.00;101908.59;5023945;28;20030;-72
2023/08/17 03:15:46;;;;;;;9.40;5.38;;;;;;;16.77;100.00;101916.16;5025830;28;20125;-72
2023/08/17 03:18:11;;;;;;;13.63;5.97;;;;;;;16.77;100.00;101904.53;5043824;28;20025;-72
2023/08/17 03:20:38;;;;;;;9.50;5.57;;;;;;;16.70;100.00;101906.75;5036852;28;20111;-72
2023/08/17 03:23:07;;;;;;;11.02;5.05;;;;;;;16.75;100.00;101907.31;5026819;28;20041;-73
2023/08/17 03:25:33;;;;;;;10.27;5.82;;;;;;;16.76;100.00;101900.94;5032926;28;20125;-72
2023/08/17 03:28:00;;;;;;;11.85;5.57;;;;;;;16.70;100.00;101903.19;5028941;28;20026;-72
2023/08/17 03:30:26;;;;;;;10.50;6.40;;;;;;;16.67;100.00;101901.59;5028431;28;20034;-72
2023/08/17 03:32:51;;;;;;;17.63;6.25;;;;;;;16.73;100.00;101897.63;5041131;28;20041;-72
2023/08/17 03:35:17;;;;;;;14.38;5.28;;;;;;;16.62;100.00;101902.88;5059443;28;20092;-72
2023/08/17 03:37:42;;;;;;;12.20;5.60;;;;;;;16.71;100.00;101896.84;5020408;28;20030;-73
2023/08/17 03:40:09;;;;;;;17.90;6.95;;;;;;;16.75;100.00;101890.28;5044045;28;20084;-72
2023/08/17 03:42:35;;;;;;;13.23;5.68;;;;;;;16.56;100.00;101891.56;5028724;28;20038;-72
2023/08/17 03:45:01;;;;;;;11.10;5.40;;;;;;;16.60;100.00;101894.06;5028627;28;20947;-72
2023/08/17 03:47:27;;;;;;;11.02;5.95;;;;;;;16.69;100.00;101891.56;5028748;28;20108;-72
2023/08/17 03:49:53;;;;;;;11.13;5.72;;;;;;;16.55;100.00;101897.09;5027950;28;20037;-73
2023/08/17 03:52:19;;;;;;;14.65;5.78;;;;;;;16.50;100.00;101896.56;5028535;28;20072;-72
2023/08/17 03:54:44;;;;;;;11.10;6.47;;;;;;;16.43;100.00;101897.97;5022067;28;20629;-72
2023/08/17 03:57:10;;;;;;;12.32;5.95;;;;;;;16.67;100.00;101889.97;5027267;28;20040;-72
2023/08/17 03:59:35;;;;;;;12.77;6.25;;;;;;;16.57;100.00;101893.31;5059577;28;20092;-73
2023/08/17 04:02:02;;;;;;;16.73;6.68;;;;;;;16.66;100.00;101888.22;5060593;28;20030;-72
2023/08/17 04:04:27;;;;;;;15.63;6.80;;;;;;;16.53;100.00;101891.81;5026166;28;20041;-72
2023/08/17 04:06:54;;;;;;;13.18;6.45;;;;;;;16.68;100.00;101892.53;5019541;28;21033;-73
2023/08/17 04:09:20;;;;;;;15.35;7.00;;;;;;;16.62;100.00;101895.69;5025991;28;20108;-72
2023/08/17 04:11:45;;;;;;;16.02;6.93;;;;;;;16.57;100.00;101901.41;5033729;28;20045;-72
2023/08/17 04:14:12;;;;;;;15.07;6.20;;;;;;;16.38;100.00;101898.28;5056336;28;20037;-73
2023/08/17 04:16:37;;;;;;;12.43;6.30;;;;;;;16.52;100.00;101902.72;5034092;28;20181;-73
2023/08/17 04:19:03;;;;;;;10.48;6.00;;;;;;;16.54;100.00;101909.69;5026420;28;20045;-72
2023/08/17 04:21:29;;;;;;;8.77;5.65;;;;;;;16.53;100.00;101907.97;5024001;28;20115;-72
2023/08/17 04:23:55;;;;;;;9.75;5.80;;;;;;;16.62;100.00;101901.06;5029523;28;20080;-72
2023/08/17 04:26:21;;;;;;;13.70;5.40;;;;;;;16.49;100.00;101903.78;5031358;28;20495;-72
2023/08/17 04:28:46;;;;;;;13.23;6.32;;;;;;;16.50;100.00;101916.25;5031194;28;20040;-72
2023/08/17 04:31:14;;;;;;;13.07;6.07;;;;;;;16.49;100.00;101921.75;5046918;28;20087;-72
2023/08/17 04:33:40;;;;;;;9.45;5.63;;;;;;;16.61;100.00;101915.50;5027780;28;20115;-72
2023/08/17 04:36:06;;;;;;;14.23;6.28;;;;;;;16.59;100.00;101930.91;5031196;28;20049;-72
2023/08/17 04:38:31;;;;;;;12.15;6.07;;;;;;;16.66;100.00;101925.94;5030231;28;20054;-73
2023/08/17 04:40:57;;;;;;;13.23;5.63;;;;;;;16.64;100.00;101919.81;5045973;28;20037;-72
2023/08/17 04:43:22;;;;;;;12.88;5.40;;;;;;;16.63;100.00;101918.94;5030699;28;20514;-73
2023/08/17 04:45:48;;;;;;;11.82;6.10;;;;;;;16.63;100.00;101918.09;5026420;28;20037;-72
2023/08/17 04:48:14;;;;;;;12.20;5.97;;;;;;;16.69;100.00;101918.50;5044465;28;20226;-72
2023/08/17 04:50:40;;;;;;;19.23;6.55;;;;;;;16.72;100.00;101918.31;5044021;28;20064;-72
2023/08/17 04:53:05;;;;;;;13.25;5.78;;;;;;;16.58;100.00;101915.72;5026598;28;20033;-72
2023/08/17 04:55:34;;;;;;;12.38;5.32;;;;;;;16.64;100.00;101915.28;5031055;28;20768;-72
2023/08/17 04:58:00;;;;;;;12.45;6.50;;;;;;;16.64;100.00;101912.59;5026693;28;20178;-72
2023/08/17 05:00:28;;;;;;;12.93;5.88;;;;;;;16.53;100.00;101918.75;5020871;28;20069;-72
2023/08/17 05:02:55;;;;;;;12.02;5.78;;;;;;;16.56;100.00;101915.81;5028894;28;20124;-73
2023/08/17 05:05:21;;;;;;;18.80;5.75;;;;;;;16.50;100.00;101918.09;5062381;28;20152;-73
2023/08/17 05:07:47;;;;;;;15.35;6.25;;;;;;;16.56;100.00;101912.25;5046219;28;20113;-72
2023/08/17 05:10:13;;;;;;;15.48;5.57;;;;;;;16.62;100.00;101916.34;5046081;28;20083;-73
2023/08/17 05:12:39;;;;;;;12.55;5.93;;;;;;;16.53;100.00;101912.50;5032974;28;20137;-72
2023/08/17 05:15:06;;;;;;;11.40;5.45;;;;;;;16.59;100.00;101906.66;5030182;28;20916;-73
2023/08/17 05:17:31;;;;;;;10.93;6.03;;;;;;;16.68;100.00;101911.41;5042536;28;20079;-72
2023/08/17 05:19:57;;;;;;;8.95;5.88;;;;;;;16.61;100.00;101915.50;5039131;28;20053;-72
2023/08/17 05:22:22;;;;;;;12.23;5.75;;;;;;;16.74;100.00;101918.22;5031265;28;20025;-72
2023/08/17 05:24:48;;;;;;;15.65;5.90;;;;;;;16.87;100.00;101912.78;5027280;28;20049;-71
2023/08/17 05:27:13;;;;;;;13.35;6.30;;;;;;;16.68;100.00;101916.78;5012554;28;20041;-72
2023/08/17 05:29:39;;;;;;;13.10;5.63;;;;;;;16.69;100.00;101915.81;5029621;28;20060;-72
2023/08/17 05:32:05;;;;;;;12.77;5.53;;;;;;;16.85;100.00;101920.97;5027910;28;20416;-72
2023/08/17 05:34:31;;;;;;;11.90;5.30;;;;;;;16.94;100.00;101914.94;5027710;28;20037;-72
2023/08/17 05:36:57;;;;;;;11.77;5.38;;;;;;;16.99;100.00;101911.91;5009981;28;20065;-72
2023/08/17 05:39:23;;;;;;;18.48;6.18;;;;;;;16.93;100.00;101915.91;5020380;28;20482;-72
2023/08/17 05:41:48;;;;;;;9.57;5.70;;;;;;;16.97;100.00;101913.84;5025445;28;20499;-72
2023/08/17 05:44:15;;;;;;;11.52;5.95;;;;;;;17.18;100.00;101919.50;5029696;28;20033;-72
2023/08/17 05:46:41;;;;;;;22.48;7.20;;;;;;;17.06;100.00;101916.72;5024926;28;20048;-72
2023/08/17 05:49:07;;;;;;;12.23;5.50;;;;;;;17.21;100.00;101924.63;5029021;28;20029;-73
2023/08/17 05:51:32;;;;;;;8.70;5.53;;;;;;;17.20;100.00;101923.78;5029102;28;20034;-72
2023/08/17 05:53:58;;;;;;;12.15;5.40;;;;;;;17.26;100.00;101927.84;5026456;28;20129;-73
2023/08/17 05:56:23;;;;;;;11.82;6.57;;;;;;;17.34;100.00;101915.53;5023435;28;20108;-73
2023/08/17 05:58:49;;;;;;;10.98;5.72;;;;;;;17.46;100.00;101918.28;5028885;28;20037;-73
2023/08/17 06:01:15;;;;;;;13.05;5.65;;;;;;;17.34;100.00;101914.69;5027677;28;20105;-72
2023/08/17 06:03:40;;;;;;;11.32;5.72;;;;;;;17.42;100.00;101919.47;5040294;28;20041;-72
2023/08/17 06:06:06;;;;;;;15.18;5.90;;;;;;;17.19;100.00;101922.06;5024487;28;20037;-73
2023/08/17 06:08:31;;;;;;;11.15;5.70;;;;;;;17.37;100.00;101921.66;5027512;28;20050;-72
2023/08/17 06:10:57;;;;;;;12.35;5.93;;;;;;;17.55;100.00;101920.28;5031149;28;20035;-72
2023/08/17 06:13:23;;;;;;;11.88;5.32;;;;;;;17.60;100.00;101926.19;5030096;28;20132;-72
2023/08/17 06:15:49;;;;;;;14.75;6.47;;;;;;;17.48;100.00;101924.44;5025358;28;20037;-73
2023/08/17 06:18:14;;;;;;;15.23;6.00;;;;;;;17.51;100.00;101924.19;5025704;28;20033;-72
2023/08/17 06:20:40;;;;;;;11.95;4.78;;;;;;;17.56;100.00;101924.69;5030185;28;20048;-72
2023/08/17 06:23:05;;;;;;;10.95;5.13;;;;;;;17.59;100.00;101922.63;5033964;28;20037;-72
2023/08/17 06:25:31;;;;;;;16.27;5.10;;;;;;;17.95;100.00;101922.66;5031039;28;20048;-72
2023/08/17 06:27:56;;;;;;;14.23;5.22;;;;;;;18.09;100.00;101926.03;5046966;28;20357;-73
2023/08/17 06:30:22;;;;;;;10.25;5.35;;;;;;;18.07;100.00;101924.41;5041538;28;20033;-73
2023/08/17 06:32:48;;;;;;;11.07;5.22;;;;;;;18.05;100.00;101916.44;5027736;28;20033;-72
2023/08/17 06:35:13;;;;;;;11.82;5.13;;;;;;;17.97;100.00;101920.69;5039673;28;20029;-72
2023/08/17 06:37:39;;;;;;;9.55;5.45;;;;;;;18.31;100.00;101922.50;5036334;28;20983;-73
2023/08/17 06:40:05;;;;;;;10.68;4.78;;;;;;;18.30;100.00;101926.19;5037510;28;20037;-73
2023/08/17 06:42:31;;;;;;;13.32;5.05;;;;;;;18.40;100.00;101925.47;5034675;28;20037;-72
2023/08/17 06:44:57;;;;;;;10.77;5.00;;;;;;;18.48;100.00;101928.41;5031720;28;20034;-72
2023/08/17 06:47:23;;;;;;;10.32;4.63;;;;;;;18.54;100.00;101928.78;5032075;28;20044;-72
2023/08/17 06:49:48;;;;;;;13.95;4.78;;;;;;;18.61;100.00;101929.16;5028920;28;20048;-73
2023/08/17 06:52:14;;;;;;;8.95;4.78;;;;;;;18.83;100.00;101920.22;5035733;28;20075;-72
2023/08/17 06:54:39;;;;;;;6.95;4.93;;;;;;;18.79;100.00;101932.25;5035963;28;20040;-73
2023/08/17 06:57:05;;;;;;;14.90;5.75;;;;;;;18.36;100.00;101935.63;5032623;28;20752;-72
2023/08/17 06:59:33;;;;;;;8.48;5.00;;;;;;;18.41;100.00;101935.28;5042366;28;20029;-72
2023/08/17 07:01:58;;;;;;;12.65;4.93;;;;;;;18.46;100.00;101933.06;5032528;28;20048;-72
2023/08/17 07:04:24;;;;;;;7.65;4.68;;;;;;;18.67;100.00;101931.34;5026869;28;20038;-72
2023/08/17 07:06:50;;;;;;;13.05;5.22;;;;;;;18.60;100.00;101933.69;5031024;28;20052;-73
2023/08/17 07:09:16;;;;;;;9.95;4.70;;;;;;;18.52;100.00;101935.28;5034603;28;20042;-72
2023/08/17 07:11:41;;;;;;;13.45;5.90;;;;;;;18.48;100.00;101937.38;5030072;28;20037;-72
2023/08/17 07:14:07;;;;;;;8.40;4.95;;;;;;;18.42;100.00;101937.00;5031577;28;20038;-72
2023/08/17 07:16:32;;;;;;;11.30;5.15;;;;;;;18.44;100.00;101938.59;5034603;28;20037;-73
2023/08/17 07:18:58;;;;;;;9.05;4.82;;;;;;;18.54;100.00;101931.47;5030822;28;20034;-73
2023/08/17 07:21:23;;;;;;;12.05;4.53;;;;;;;18.41;100.00;101936.13;5032724;28;20038;-72
2023/08/17 07:23:50;;;;;;;9.07;4.50;;;;;;;18.55;100.00;101935.91;5022811;28;20145;-72
2023/08/17 07:26:18;;;;;;;8.57;4.70;;;;;;;18.44;100.00;101937.75;5028025;28;20144;-72
2023/08/17 07:28:45;;;;;;;16.55;5.20;;;;;;;18.29;100.00;101937.09;5027949;28;20096;-72
2023/08/17 07:31:10;;;;;;;12.82;4.70;;;;;;;18.26;100.00;101932.78;5025589;28;20041;-73
2023/08/17 07:33:36;;;;;;;10.00;4.18;;;;;;;18.32;100.00;101948.53;5029226;28;20089;-73
2023/08/17 07:36:02;;;;;;;11.85;4.22;;;;;;;18.19;100.00;101942.38;5030293;28;20043;-72
2023/08/17 07:38:28;;;;;;;8.90;4.70;;;;;;;18.11;100.00;101950.19;5055018;28;20036;-73
2023/08/17 07:40:55;;;;;;;10.05;4.95;;;;;;;18.16;100.00;101949.84;5022361;28;20037;-73
2023/08/17 07:43:20;;;;;;;9.60;4.72;;;;;;;18.24;100.00;101953.66;5027534;28;20037;-72
2023/08/17 07:45:46;;;;;;;8.52;4.53;;;;;;;18.22;100.00;101939.41;5028685;28;20038;-72
2023/08/17 07:48:11;;;;;;;12.50;5.43;;;;;;;18.28;100.00;101949.75;5030501;28;20037;-73
2023/08/17 07:50:37;;;;;;;11.57;4.95;;;;;;;18.18;100.00;101948.75;5029381;28;20112;-73
2023/08/17 07:53:03;;;;;;;10.50;5.43;;;;;;;18.01;100.00;101954.59;5043351;28;20041;-72
2023/08/17 07:55:28;;;;;;;10.48;4.53;;;;;;;18.04;100.00;101957.06;5032582;28;20096;-73
2023/08/17 07:57:54;;;;;;;14.80;4.78;;;;;;;18.10;100.00;101946.63;5030892;28;20033;-73
2023/08/17 08:00:19;;;;;;;9.70;5.15;;;;;;;17.98;100.00;101950.28;5019222;28;20054;-73
2023/08/17 08:02:46;;;;;;;10.88;5.10;;;;;;;18.10;100.00;101949.34;5029976;28;20072;-72
2023/08/17 08:05:14;;;;;;;10.40;4.97;;;;;;;18.11;100.00;101950.19;5031841;28;20141;-73
2023/08/17 08:07:39;;;;;;;8.80;5.07;;;;;;;18.27;100.00;101953.44;5043879;28;20864;-73
2023/08/17 08:10:05;;;;;;;8.80;4.78;;;;;;;18.46;100.00;101952.84;5030871;28;20061;-73
2023/08/17 08:12:31;;;;;;;8.18;5.20;;;;;;;18.45;100.00;101966.47;5030474;28;20037;-73
2023/08/17 08:14:56;;;;;;;9.48;5.57;;;;;;;18.59;100.00;101961.69;5030692;28;20045;-72
2023/08/17 08:17:22;;;;;;;13.02;5.57;;;;;;;18.28;100.00;101970.50;5030472;28;20044;-72
2023/08/17 08:19:47;;;;;;;14.18;5.45;;;;;;;18.38;100.00;101960.69;5029956;28;20041;-72
2023/08/17 08:22:13;;;;;;;15.15;5.55;;;;;;;18.43;100.00;101966.59;5031837;28;20044;-72
2023/08/17 08:24:40;;;;;;;12.80;5.35;;;;;;;18.37;100.00;101962.53;5022694;28;20040;-73
2023/08/17 08:27:06;;;;;;;12.40;5.78;;;;;;;18.38;100.00;101958.84;5022584;28;20033;-72
2023/08/17 08:29:31;;;;;;;9.00;5.30;;;;;;;18.25;100.00;101960.78;5030145;28;20037;-73
2023/08/17 08:31:59;;;;;;;7.30;4.68;;;;;;;18.35;100.00;101966.31;5030587;28;20030;-72
2023/08/17 08:34:25;;;;;;;14.65;5.43;;;;;;;18.25;100.00;101960.78;5013611;28;20148;-73
2023/08/17 08:36:50;;;;;;;11.15;4.80;;;;;;;18.40;100.00;101961.44;5029386;28;20034;-72
2023/08/17 08:39:16;;;;;;;10.13;5.07;;;;;;;18.38;100.00;101960.69;5025831;28;20030;-73
2023/08/17 08:41:42;;;;;;;10.70;5.45;;;;;;;18.25;100.00;101952.69;5028884;28;20587;-73
2023/08/17 08:44:07;;;;;;;17.63;5.80;;;;;;;18.58;100.00;101954.59;5030493;28;20033;-73
2023/08/17 08:46:34;;;;;;;10.43;5.43;;;;;;;18.63;100.00;101949.66;5031345;28;20033;-72
2023/08/17 08:49:02;;;;;;;10.73;6.20;;;;;;;18.73;100.00;101952.53;5030868;28;20053;-72
2023/08/17 08:51:30;;;;;;;17.55;5.88;;;;;;;18.87;100.00;101946.84;5026137;28;20037;-72
2023/08/17 08:54:03;;;;;;;14.77;5.65;;;;;;;18.83;100.00;101948.09;5029710;28;20055;-73
2023/08/17 08:56:32;;;;;;;11.63;5.57;;;;;;;18.56;100.00;101950.25;5026113;28;20120;-73
2023/08/17 08:59:01;;;;;;;11.10;5.70;;;;;;;18.71;100.00;101951.78;5028081;28;20140;-72
2023/08/17 09:01:27;;;;;;;14.43;6.60;;;;;;;18.68;100.00;101949.34;5045574;28;20049;-72
2023/08/17 09:03:53;;;;;;;10.05;5.75;;;;;;;18.96;100.00;101942.53;5029844;28;20135;-71
2023/08/17 09:06:21;;;;;;;16.98;6.93;;;;;;;19.05;100.00;101946.34;5027020;28;20037;-73
2023/08/17 09:08:49;;;;;;;15.80;6.82;;;;;;;18.92;100.00;101948.31;5026552;28;20550;-72
2023/08/17 09:11:14;;;;;;;11.50;5.95;;;;;;;19.15;100.00;101947.31;5032648;28;20041;-72
2023/08/17 09:13:40;;;;;;;10.40;6.95;;;;;;;19.00;100.00;101952.13;5029822;28;20149;-72
2023/08/17 09:16:05;;;;;;;14.13;7.40;;;;;;;19.17;100.00;101948.03;5026392;28;20883;-72
2023/08/17 09:18:31;;;;;;;13.68;7.35;;;;;;;19.22;100.00;101937.69;5027638;28;20037;-73
2023/08/17 09:20:56;;;;;;;15.13;7.78;;;;;;;19.19;100.00;101940.69;5031235;28;20050;-73
2023/08/17 09:23:22;;;;;;;15.07;7.82;;;;;;;19.23;100.00;101935.84;5031723;28;20299;-72
2023/08/17 09:25:49;;;;;;;13.65;7.72;;;;;;;19.32;100.00;101933.25;5030332;28;20783;-73
2023/08/17 09:28:16;;;;;;;13.48;7.60;;;;;;;19.23;100.00;101936.75;5031465;28;20039;-72
2023/08/17 09:30:52;;;;;;;11.35;7.28;;;;;;;19.29;100.00;101940.78;5031357;28;20905;-73
2023/08/17 09:33:27;;;;;;;12.57;8.23;;;;;;;19.19;100.00;101939.81;5028835;28;20040;-72
2023/08/17 09:35:55;;;;;;;15.30;7.82;;;;;;;19.48;100.00;101931.97;5026845;28;20040;-72
2023/08/17 09:38:20;;;;;;;16.65;7.78;;;;;;;19.35;100.00;101926.75;5025722;28;20064;-72
2023/08/17 09:40:46;;;;;;;13.75;7.60;;;;;;;19.62;100.00;101921.75;5023346;28;20044;-73
2023/08/17 09:43:14;;;;;;;16.30;8.55;;;;;;;19.48;100.00;101923.84;5029804;28;20030;-73
2023/08/17 09:45:40;;;;;;;16.58;9.05;;;;;;;19.98;100.00;101910.59;5036247;28;20725;-72
2023/08/17 09:48:08;;;;;;;14.05;8.20;;;;;;;19.92;100.00;101917.41;5030665;28;20118;-72
2023/08/17 09:50:35;;;;;;;15.23;8.18;;;;;;;20.00;100.00;101908.66;5022673;28;20117;-73
2023/08/17 09:53:03;;;;;;;15.57;8.43;;;;;;;19.78;100.00;101912.31;5025449;28;20129;-72
2023/08/17 09:55:32;;;;;;;24.00;8.75;;;;;;;19.50;100.00;101921.91;5047100;28;21263;-72
2023/08/17 09:57:58;;;;;;;22.77;9.32;;;;;;;19.56;100.00;101924.09;5026474;28;20033;-73
2023/08/17 10:00:25;;;;;;;16.48;8.38;;;;;;;19.65;100.00;101915.22;5031042;28;20182;-73
2023/08/17 10:02:52;;;;;;;23.25;9.75;;;;;;;19.55;100.00;101920.53;5027883;28;20040;-73
2023/08/17 10:05:20;;;;;;;20.88;9.70;;;;;;;19.23;100.00;101928.63;5026234;28;20037;-73
2023/08/17 10:07:53;;;;;;;19.90;10.40;;;;;;;19.37;100.00;101917.50;5026080;28;20038;-72
2023/08/17 10:10:24;;;;;;;18.73;10.15;;;;;;;19.31;100.00;101920.72;5026309;28;20072;-72
2023/08/17 10:13:10;;;;;;;20.00;9.95;;;;;;;19.41;100.00;101920.81;5063289;28;20726;-72
2023/08/17 10:15:55;;;;;;;16.13;9.75;;;;;;;19.57;100.00;101913.13;5022970;28;21190;-72
2023/08/17 10:18:31;;;;;;;15.02;8.98;;;;;;;19.52;100.00;101919.91;5044874;28;20048;-73
2023/08/17 10:21:02;;;;;;;16.20;9.45;;;;;;;19.42;100.00;101914.41;5023945;28;20105;-73
2023/08/17 10:23:29;;;;;;;19.67;10.55;;;;;;;19.38;100.00;101921.09;5031645;28;20049;-73
2023/08/17 10:25:55;;;;;;;17.10;9.23;;;;;;;19.51;100.00;101910.94;5062956;28;20480;-73
2023/08/17 10:28:24;;;;;;;22.17;9.65;;;;;;;19.63;100.00;101911.81;5030717;28;20036;-73
2023/08/17 10:30:51;;;;;;;16.92;9.43;;;;;;;19.58;100.00;101914.00;5030814;28;20025;-73
2023/08/17 10:33:17;;;;;;;17.58;10.85;;;;;;;19.54;100.00;101902.56;5031937;28;20041;-73
2023/08/17 10:35:44;;;;;;;25.08;10.25;;;;;;;19.86;100.00;101894.44;5030245;28;20033;-72
2023/08/17 10:38:10;;;;;;;18.90;10.32;;;;;;;19.88;100.00;101895.19;5029853;28;20069;-72
2023/08/17 10:40:37;;;;;;;16.83;9.05;;;;;;;19.65;100.00;101907.09;5024163;28;20048;-73
2023/08/17 10:43:03;;;;;;;19.20;10.15;;;;;;;19.63;100.00;101907.25;5030305;28;20025;-73
2023/08/17 10:45:34;;;;;;;18.42;10.60;;;;;;;19.89;100.00;101898.75;5026710;28;20053;-72
2023/08/17 10:48:21;;;;;;;17.95;11.02;;;;;;;19.74;100.00;101898.22;5047217;28;20844;-72
2023/08/17 10:51:03;;;;;;;17.23;10.70;;;;;;;19.78;100.00;101894.25;5029296;28;20033;-72
2023/08/17 10:53:34;;;;;;;17.92;9.75;;;;;;;19.94;100.00;101885.66;5024946;28;20034;-72
2023/08/17 10:56:00;;;;;;;18.77;9.85;;;;;;;19.83;100.00;101881.19;5064130;28;20883;-73
2023/08/17 10:58:30;;;;;;;17.33;10.23;;;;;;;19.95;100.00;101883.81;5029862;28;20040;-73
2023/08/17 11:00:56;;;;;;;19.65;11.15;;;;;;;20.09;100.00;101883.50;5033970;28;20294;-72
2023/08/17 11:03:23;;;;;;;19.23;10.82;;;;;;;20.18;100.00;101882.66;5034746;28;20038;-72
2023/08/17 11:05:54;;;;;;;16.20;10.43;;;;;;;20.48;100.00;101880.97;5034376;28;20033;-72
2023/08/17 11:08:22;;;;;;;20.02;11.63;;;;;;;20.39;100.00;101882.66;5040964;28;20581;-72
2023/08/17 11:11:03;;;;;;;16.48;10.68;;;;;;;20.35;100.00;101873.06;5035118;28;20105;-73